sensor_id;sensor_type;location;lat;lon;timestamp;pressure;altitude;pressure_sealevel;temperature;humidity
77574;BME280;66710;48.868;9.080;2023-03-30T00:00:47;97692.13;;;14.02;54.67
77574;BME280;66710;48.868;9.080;2023-03-30T00:03:13;97692.13;;;14.02;54.42
77574;BME280;66710;48.868;9.080;2023-03-30T00:05:38;97692.63;;;14.04;54.53
77574;BME280;66710;48.868;9.080;2023-03-30T00:08:04;97689.81;;;14.10;54.16
77574;BME280;66710;48.868;9.080;2023-03-30T00:10:30;97687.38;;;14.08;54.58
77574;BME280;66710;48.868;9.080;2023-03-30T00:12:55;97682.41;;;14.10;53.96
77574;BME280;66710;48.868;9.080;2023-03-30T00:15:22;97687.59;;;14.12;54.19
77574;BME280;66710;48.868;9.080;2023-03-30T00:17:48;97680.28;;;14.21;53.44
77574;BME280;66710;48.868;9.080;2023-03-30T00:20:14;97681.69;;;14.18;53.83
77574;BME280;66710;48.868;9.080;2023-03-30T00:22:42;97685.66;;;14.12;54.23
77574;BME280;66710;48.868;9.080;2023-03-30T00:25:10;97664.84;;;14.11;54.10
77574;BME280;66710;48.868;9.080;2023-03-30T00:27:38;97665.38;;;13.99;55.03
77574;BME280;66710;48.868;9.080;2023-03-30T00:30:06;97664.84;;;13.97;55.28
77574;BME280;66710;48.868;9.080;2023-03-30T00:32:32;97658.75;;;14.00;55.12
77574;BME280;66710;48.868;9.080;2023-03-30T00:34:59;97657.34;;;14.03;55.34
77574;BME280;66710;48.868;9.080;2023-03-30T00:37:25;97649.63;;;13.91;55.80
77574;BME280;66710;48.868;9.080;2023-03-30T00:39:51;97650.44;;;13.92;56.07
77574;BME280;66710;48.868;9.080;2023-03-30T00:42:18;97643.16;;;13.87;55.98
77574;BME280;66710;48.868;9.080;2023-03-30T00:48:04;97638.28;;;13.98;55.70
77574;BME280;66710;48.868;9.080;2023-03-30T00:50:50;97640.81;;;13.94;55.96
77574;BME280;66710;48.868;9.080;2023-03-30T00:53:21;97626.38;;;13.89;56.37
77574;BME280;66710;48.868;9.080;2023-03-30T00:55:49;97637.97;;;13.86;56.49
77574;BME280;66710;48.868;9.080;2023-03-30T00:58:17;97618.19;;;13.75;57.15
77574;BME280;66710;48.868;9.080;2023-03-30T01:00:44;97618.00;;;13.71;57.20
77574;BME280;66710;48.868;9.080;2023-03-30T01:03:30;97610.56;;;13.72;57.50
77574;BME280;66710;48.868;9.080;2023-03-30T01:05:58;97608.53;;;13.77;57.38
77574;BME280;66710;48.868;9.080;2023-03-30T01:08:26;97613.53;;;13.75;57.48
77574;BME280;66710;48.868;9.080;2023-03-30T01:10:59;97615.75;;;13.73;57.79
77574;BME280;66710;48.868;9.080;2023-03-30T01:13:28;97611.50;;;13.81;57.51
77574;BME280;66710;48.868;9.080;2023-03-30T01:16:18;97613.31;;;13.86;57.77
77574;BME280;66710;48.868;9.080;2023-03-30T01:26:53;97651.84;;;14.17;57.48
77574;BME280;66710;48.868;9.080;2023-03-30T01:32:25;97631.47;;;13.95;60.21
77574;BME280;66710;48.868;9.080;2023-03-30T01:35:16;97634.69;;;13.83;60.75
77574;BME280;66710;48.868;9.080;2023-03-30T01:37:54;97617.47;;;13.83;61.08
77574;BME280;66710;48.868;9.080;2023-03-30T01:43:02;97604.19;;;13.90;61.08
77574;BME280;66710;48.868;9.080;2023-03-30T01:45:54;97602.38;;;13.86;61.60
77574;BME280;66710;48.868;9.080;2023-03-30T01:48:41;97610.38;;;13.96;61.19
77574;BME280;66710;48.868;9.080;2023-03-30T01:51:38;97629.03;;;13.94;61.80
77574;BME280;66710;48.868;9.080;2023-03-30T01:54:11;97622.22;;;13.77;62.59
77574;BME280;66710;48.868;9.080;2023-03-30T01:56:45;97628.41;;;13.83;62.68
77574;BME280;66710;48.868;9.080;2023-03-30T01:59:24;97619.78;;;13.76;62.95
77574;BME280;66710;48.868;9.080;2023-03-30T02:01:55;97619.19;;;13.79;62.84
77574;BME280;66710;48.868;9.080;2023-03-30T02:04:28;97617.16;;;13.84;62.84
77574;BME280;66710;48.868;9.080;2023-03-30T02:06:59;97614.31;;;13.76;63.37
77574;BME280;66710;48.868;9.080;2023-03-30T02:09:26;97633.50;;;13.76;63.50
77574;BME280;66710;48.868;9.080;2023-03-30T02:11:54;97624.56;;;13.70;63.96
77574;BME280;66710;48.868;9.080;2023-03-30T02:14:23;97628.69;;;13.68;64.06
77574;BME280;66710;48.868;9.080;2023-03-30T02:16:54;97630.34;;;13.69;63.92
77574;BME280;66710;48.868;9.080;2023-03-30T02:19:20;97637.41;;;13.56;64.74
77574;BME280;66710;48.868;9.080;2023-03-30T02:21:46;97644.50;;;13.43;65.23
77574;BME280;66710;48.868;9.080;2023-03-30T02:24:17;97645.00;;;13.45;65.43
77574;BME280;66710;48.868;9.080;2023-03-30T02:26:45;97635.25;;;13.39;65.59
77574;BME280;66710;48.868;9.080;2023-03-30T02:29:13;97646.28;;;13.34;66.06
77574;BME280;66710;48.868;9.080;2023-03-30T02:31:40;97644.72;;;13.27;66.47
77574;BME280;66710;48.868;9.080;2023-03-30T02:39:28;97642.47;;;13.49;65.28
77574;BME280;66710;48.868;9.080;2023-03-30T02:42:39;97633.84;;;13.41;65.78
77574;BME280;66710;48.868;9.080;2023-03-30T02:45:22;97644.91;;;13.50;65.66
77574;BME280;66710;48.868;9.080;2023-03-30T02:51:39;97629.72;;;13.58;65.79
77574;BME280;66710;48.868;9.080;2023-03-30T02:54:21;97623.19;;;13.40;67.69
77574;BME280;66710;48.868;9.080;2023-03-30T02:57:08;97611.91;;;13.08;71.27
77574;BME280;66710;48.868;9.080;2023-03-30T03:00:49;97595.22;;;13.10;71.26
77574;BME280;66710;48.868;9.080;2023-03-30T03:03:14;97562.56;;;13.00;71.52
77574;BME280;66710;48.868;9.080;2023-03-30T03:05:41;97571.53;;;12.86;72.41
77574;BME280;66710;48.868;9.080;2023-03-30T03:08:07;97564.75;;;12.84;72.64
77574;BME280;66710;48.868;9.080;2023-03-30T03:10:33;97579.00;;;12.81;72.59
77574;BME280;66710;48.868;9.080;2023-03-30T03:13:01;97588.31;;;12.80;73.71
77574;BME280;66710;48.868;9.080;2023-03-30T03:15:26;97583.94;;;12.79;73.25
77574;BME280;66710;48.868;9.080;2023-03-30T03:17:53;97564.38;;;12.71;73.67
77574;BME280;66710;48.868;9.080;2023-03-30T03:20:18;97565.13;;;12.77;73.43
77574;BME280;66710;48.868;9.080;2023-03-30T03:22:44;97552.44;;;12.67;73.93
77574;BME280;66710;48.868;9.080;2023-03-30T03:25:09;97553.59;;;12.61;74.43
77574;BME280;66710;48.868;9.080;2023-03-30T03:27:35;97564.84;;;12.60;74.91
77574;BME280;66710;48.868;9.080;2023-03-30T03:30:01;97553.69;;;12.56;74.95
77574;BME280;66710;48.868;9.080;2023-03-30T03:32:27;97556.06;;;12.44;76.09
77574;BME280;66710;48.868;9.080;2023-03-30T03:34:52;97556.66;;;12.41;76.28
77574;BME280;66710;48.868;9.080;2023-03-30T03:37:18;97539.28;;;12.31;76.61
77574;BME280;66710;48.868;9.080;2023-03-30T03:39:43;97523.97;;;12.36;76.30
77574;BME280;66710;48.868;9.080;2023-03-30T03:42:09;97536.63;;;12.26;76.92
77574;BME280;66710;48.868;9.080;2023-03-30T03:44:34;97544.03;;;12.26;77.21
77574;BME280;66710;48.868;9.080;2023-03-30T03:47:01;97554.72;;;12.22;77.48
77574;BME280;66710;48.868;9.080;2023-03-30T03:49:27;97550.13;;;12.18;77.09
77574;BME280;66710;48.868;9.080;2023-03-30T03:51:52;97548.38;;;12.08;78.19
77574;BME280;66710;48.868;9.080;2023-03-30T03:54:18;97557.88;;;12.10;78.23
77574;BME280;66710;48.868;9.080;2023-03-30T03:56:43;97566.06;;;12.10;78.09
77574;BME280;66710;48.868;9.080;2023-03-30T03:59:08;97555.97;;;12.11;78.13
77574;BME280;66710;48.868;9.080;2023-03-30T04:01:34;97554.13;;;12.06;78.20
77574;BME280;66710;48.868;9.080;2023-03-30T04:03:59;97554.91;;;12.07;77.93
77574;BME280;66710;48.868;9.080;2023-03-30T04:06:25;97546.72;;;12.07;78.51
77574;BME280;66710;48.868;9.080;2023-03-30T04:08:51;97546.66;;;12.12;77.94
77574;BME280;66710;48.868;9.080;2023-03-30T04:11:16;97539.97;;;12.04;78.38
77574;BME280;66710;48.868;9.080;2023-03-30T04:13:42;97539.00;;;12.14;78.35
77574;BME280;66710;48.868;9.080;2023-03-30T04:16:08;97529.78;;;12.10;78.17
77574;BME280;66710;48.868;9.080;2023-03-30T04:18:34;97523.28;;;12.06;78.51
77574;BME280;66710;48.868;9.080;2023-03-30T04:21:00;97509.06;;;12.09;78.34
77574;BME280;66710;48.868;9.080;2023-03-30T04:23:32;97498.19;;;12.04;78.38
77574;BME280;66710;48.868;9.080;2023-03-30T04:26:03;97491.09;;;12.03;78.25
77574;BME280;66710;48.868;9.080;2023-03-30T04:28:30;97493.75;;;12.08;78.63
77574;BME280;66710;48.868;9.080;2023-03-30T04:31:05;97482.63;;;12.04;78.61
77574;BME280;66710;48.868;9.080;2023-03-30T04:33:34;97477.44;;;12.03;79.26
77574;BME280;66710;48.868;9.080;2023-03-30T04:36:02;97467.13;;;12.00;79.11
77574;BME280;66710;48.868;9.080;2023-03-30T04:38:28;97462.28;;;11.97;79.55
77574;BME280;66710;48.868;9.080;2023-03-30T04:40:54;97460.28;;;12.02;78.80
77574;BME280;66710;48.868;9.080;2023-03-30T04:43:21;97459.91;;;12.09;78.67
77574;BME280;66710;48.868;9.080;2023-03-30T04:45:52;97454.22;;;12.05;78.83
77574;BME280;66710;48.868;9.080;2023-03-30T04:48:19;97451.31;;;12.16;78.27
77574;BME280;66710;48.868;9.080;2023-03-30T04:50:46;97455.31;;;12.23;78.02
77574;BME280;66710;48.868;9.080;2023-03-30T04:53:12;97446.81;;;12.25;77.39
77574;BME280;66710;48.868;9.080;2023-03-30T04:55:39;97454.19;;;12.24;77.60
77574;BME280;66710;48.868;9.080;2023-03-30T04:58:04;97452.66;;;12.18;77.76
77574;BME280;66710;48.868;9.080;2023-03-30T05:00:30;97457.53;;;12.21;77.71
77574;BME280;66710;48.868;9.080;2023-03-30T05:02:56;97461.66;;;12.19;78.04
77574;BME280;66710;48.868;9.080;2023-03-30T05:05:21;97462.75;;;12.18;77.72
77574;BME280;66710;48.868;9.080;2023-03-30T05:07:47;97458.63;;;12.20;77.82
77574;BME280;66710;48.868;9.080;2023-03-30T05:10:13;97459.44;;;12.21;77.80
77574;BME280;66710;48.868;9.080;2023-03-30T05:12:38;97440.91;;;12.18;77.77
77574;BME280;66710;48.868;9.080;2023-03-30T05:15:04;97450.88;;;12.27;77.40
77574;BME280;66710;48.868;9.080;2023-03-30T05:17:33;97428.50;;;12.25;76.99
77574;BME280;66710;48.868;9.080;2023-03-30T05:19:58;97430.31;;;12.30;76.92
77574;BME280;66710;48.868;9.080;2023-03-30T05:22:24;97423.78;;;12.31;76.71
77574;BME280;66710;48.868;9.080;2023-03-30T05:24:49;97416.31;;;12.37;76.66
77574;BME280;66710;48.868;9.080;2023-03-30T05:27:16;97418.66;;;12.43;76.39
77574;BME280;66710;48.868;9.080;2023-03-30T05:29:41;97409.56;;;12.48;75.83
77574;BME280;66710;48.868;9.080;2023-03-30T05:32:07;97406.34;;;12.60;74.73
77574;BME280;66710;48.868;9.080;2023-03-30T05:34:33;97398.13;;;12.60;74.96
77574;BME280;66710;48.868;9.080;2023-03-30T05:36:58;97395.63;;;12.63;74.77
77574;BME280;66710;48.868;9.080;2023-03-30T05:39:23;97399.47;;;12.62;74.79
77574;BME280;66710;48.868;9.080;2023-03-30T05:41:49;97399.47;;;12.62;74.92
77574;BME280;66710;48.868;9.080;2023-03-30T05:44:14;97389.44;;;12.58;74.85
77574;BME280;66710;48.868;9.080;2023-03-30T05:46:40;97407.88;;;12.66;74.75
77574;BME280;66710;48.868;9.080;2023-03-30T05:49:05;97412.66;;;12.74;74.04
77574;BME280;66710;48.868;9.080;2023-03-30T05:51:31;97422.56;;;12.70;74.40
77574;BME280;66710;48.868;9.080;2023-03-30T05:53:56;97445.34;;;12.65;74.79
77574;BME280;66710;48.868;9.080;2023-03-30T05:56:22;97454.25;;;12.71;74.60
77574;BME280;66710;48.868;9.080;2023-03-30T05:58:49;97472.25;;;12.72;75.03
77574;BME280;66710;48.868;9.080;2023-03-30T06:01:14;97493.09;;;12.68;74.79
77574;BME280;66710;48.868;9.080;2023-03-30T06:03:39;97526.78;;;12.63;75.65
77574;BME280;66710;48.868;9.080;2023-03-30T06:06:06;97517.53;;;12.78;75.07
77574;BME280;66710;48.868;9.080;2023-03-30T06:08:32;97536.66;;;12.97;74.04
77574;BME280;66710;48.868;9.080;2023-03-30T06:10:57;97550.13;;;12.75;75.28
77574;BME280;66710;48.868;9.080;2023-03-30T06:13:23;97559.34;;;12.79;74.88
77574;BME280;66710;48.868;9.080;2023-03-30T06:15:49;97565.88;;;12.45;77.14
77574;BME280;66710;48.868;9.080;2023-03-30T06:18:15;97567.72;;;12.30;78.49
77574;BME280;66710;48.868;9.080;2023-03-30T06:20:40;97563.44;;;12.24;78.67
77574;BME280;66710;48.868;9.080;2023-03-30T06:23:06;97575.25;;;12.20;79.21
77574;BME280;66710;48.868;9.080;2023-03-30T06:25:31;97566.22;;;12.19;79.34
77574;BME280;66710;48.868;9.080;2023-03-30T06:27:56;97576.00;;;12.25;78.68
77574;BME280;66710;48.868;9.080;2023-03-30T06:30:22;97573.25;;;12.25;78.31
77574;BME280;66710;48.868;9.080;2023-03-30T06:32:47;97579.69;;;12.35;77.54
77574;BME280;66710;48.868;9.080;2023-03-30T06:35:13;97587.16;;;12.29;78.26
77574;BME280;66710;48.868;9.080;2023-03-30T06:37:40;97596.22;;;12.43;77.97
77574;BME280;66710;48.868;9.080;2023-03-30T06:40:06;97602.56;;;12.39;78.79
77574;BME280;66710;48.868;9.080;2023-03-30T06:42:41;97606.56;;;12.46;78.04
77574;BME280;66710;48.868;9.080;2023-03-30T06:45:08;97605.16;;;12.49;79.31
77574;BME280;66710;48.868;9.080;2023-03-30T06:47:34;97600.31;;;12.46;80.96
77574;BME280;66710;48.868;9.080;2023-03-30T06:49:59;97606.13;;;12.39;82.31
77574;BME280;66710;48.868;9.080;2023-03-30T06:52:25;97616.84;;;12.36;82.28
77574;BME280;66710;48.868;9.080;2023-03-30T06:54:51;97625.84;;;12.36;82.35
77574;BME280;66710;48.868;9.080;2023-03-30T06:57:16;97629.72;;;12.30;82.81
77574;BME280;66710;48.868;9.080;2023-03-30T06:59:41;97641.53;;;12.25;83.08
77574;BME280;66710;48.868;9.080;2023-03-30T07:02:12;97649.56;;;12.17;83.45
77574;BME280;66710;48.868;9.080;2023-03-30T07:04:38;97653.69;;;12.14;83.34
77574;BME280;66710;48.868;9.080;2023-03-30T07:07:03;97657.88;;;12.06;83.79
77574;BME280;66710;48.868;9.080;2023-03-30T07:09:28;97657.19;;;11.95;84.87
77574;BME280;66710;48.868;9.080;2023-03-30T07:11:54;97644.19;;;11.82;85.20
77574;BME280;66710;48.868;9.080;2023-03-30T07:14:19;97648.38;;;11.74;84.62
77574;BME280;66710;48.868;9.080;2023-03-30T07:16:45;97655.03;;;11.63;85.72
77574;BME280;66710;48.868;9.080;2023-03-30T07:19:12;97664.94;;;11.54;86.39
77574;BME280;66710;48.868;9.080;2023-03-30T07:21:37;97661.69;;;11.52;86.95
77574;BME280;66710;48.868;9.080;2023-03-30T07:24:03;97669.63;;;11.48;87.08
77574;BME280;66710;48.868;9.080;2023-03-30T07:26:29;97691.84;;;11.36;88.01
77574;BME280;66710;48.868;9.080;2023-03-30T07:28:55;97694.22;;;11.43;87.35
77574;BME280;66710;48.868;9.080;2023-03-30T07:31:21;97690.19;;;11.35;88.22
77574;BME280;66710;48.868;9.080;2023-03-30T07:33:48;97667.03;;;11.33;87.60
77574;BME280;66710;48.868;9.080;2023-03-30T07:36:14;97643.34;;;11.28;88.12
77574;BME280;66710;48.868;9.080;2023-03-30T07:38:39;97673.63;;;11.27;87.97
77574;BME280;66710;48.868;9.080;2023-03-30T07:41:09;97676.41;;;11.22;88.57
77574;BME280;66710;48.868;9.080;2023-03-30T07:43:35;97659.75;;;11.23;88.63
77574;BME280;66710;48.868;9.080;2023-03-30T07:46:01;97645.81;;;11.30;88.63
77574;BME280;66710;48.868;9.080;2023-03-30T07:48:26;97635.69;;;11.30;86.74
77574;BME280;66710;48.868;9.080;2023-03-30T07:51:02;97639.00;;;11.27;87.18
77574;BME280;66710;48.868;9.080;2023-03-30T07:53:28;97655.59;;;11.31;87.38
77574;BME280;66710;48.868;9.080;2023-03-30T07:55:53;97669.03;;;11.22;88.32
77574;BME280;66710;48.868;9.080;2023-03-30T07:58:19;97672.31;;;11.24;88.08
77574;BME280;66710;48.868;9.080;2023-03-30T08:00:45;97684.28;;;11.23;88.25
77574;BME280;66710;48.868;9.080;2023-03-30T08:03:11;97697.66;;;11.25;88.33
77574;BME280;66710;48.868;9.080;2023-03-30T08:05:37;97709.09;;;11.27;88.76
77574;BME280;66710;48.868;9.080;2023-03-30T08:08:02;97723.28;;;11.24;88.94
77574;BME280;66710;48.868;9.080;2023-03-30T08:10:28;97725.22;;;11.18;89.31
77574;BME280;66710;48.868;9.080;2023-03-30T08:12:54;97729.00;;;11.22;88.96
77574;BME280;66710;48.868;9.080;2023-03-30T08:15:20;97733.41;;;11.18;88.81
77574;BME280;66710;48.868;9.080;2023-03-30T08:17:45;97723.00;;;11.25;88.11
77574;BME280;66710;48.868;9.080;2023-03-30T08:20:11;97732.59;;;11.17;88.82
77574;BME280;66710;48.868;9.080;2023-03-30T08:22:36;97738.03;;;11.23;88.42
77574;BME280;66710;48.868;9.080;2023-03-30T08:25:01;97736.13;;;11.18;89.08
77574;BME280;66710;48.868;9.080;2023-03-30T08:27:27;97735.63;;;11.16;89.50
77574;BME280;66710;48.868;9.080;2023-03-30T08:29:52;97741.34;;;11.14;89.03
77574;BME280;66710;48.868;9.080;2023-03-30T08:32:18;97729.09;;;11.12;88.26
77574;BME280;66710;48.868;9.080;2023-03-30T08:34:44;97690.31;;;11.20;87.92
77574;BME280;66710;48.868;9.080;2023-03-30T08:37:10;97667.69;;;11.19;87.50
77574;BME280;66710;48.868;9.080;2023-03-30T08:39:36;97650.50;;;11.24;87.24
77574;BME280;66710;48.868;9.080;2023-03-30T08:42:22;97620.22;;;11.20;87.12
77574;BME280;66710;48.868;9.080;2023-03-30T08:44:56;97645.88;;;11.19;88.05
77574;BME280;66710;48.868;9.080;2023-03-30T08:47:30;97655.44;;;11.17;88.06
77574;BME280;66710;48.868;9.080;2023-03-30T08:52:37;97640.19;;;11.16;88.26
77574;BME280;66710;48.868;9.080;2023-03-30T08:55:02;97650.56;;;11.14;88.22
77574;BME280;66710;48.868;9.080;2023-03-30T08:57:37;97633.72;;;11.07;88.79
77574;BME280;66710;48.868;9.080;2023-03-30T09:02:43;97626.31;;;11.12;89.20
77574;BME280;66710;48.868;9.080;2023-03-30T09:05:22;97612.13;;;11.15;88.72
77574;BME280;66710;48.868;9.080;2023-03-30T09:07:56;97630.03;;;11.22;88.59
77574;BME280;66710;48.868;9.080;2023-03-30T09:10:26;97642.19;;;11.34;88.28
77574;BME280;66710;48.868;9.080;2023-03-30T09:12:58;97639.09;;;11.46;87.55
77574;BME280;66710;48.868;9.080;2023-03-30T09:15:32;97639.06;;;11.51;87.23
77574;BME280;66710;48.868;9.080;2023-03-30T09:20:38;97649.41;;;11.79;85.88
77574;BME280;66710;48.868;9.080;2023-03-30T09:23:05;97654.75;;;11.94;85.11
77574;BME280;66710;48.868;9.080;2023-03-30T09:31:10;97641.50;;;12.06;82.42
77574;BME280;66710;48.868;9.080;2023-03-30T09:33:44;97640.25;;;12.18;82.06
77574;BME280;66710;48.868;9.080;2023-03-30T09:36:16;97660.44;;;12.22;80.97
77574;BME280;66710;48.868;9.080;2023-03-30T09:38:47;97669.16;;;12.24;79.16
77574;BME280;66710;48.868;9.080;2023-03-30T09:43:43;97680.28;;;12.27;81.08
77574;BME280;66710;48.868;9.080;2023-03-30T09:46:12;97690.19;;;12.23;80.76
77574;BME280;66710;48.868;9.080;2023-03-30T09:48:46;97703.16;;;12.12;80.64
77574;BME280;66710;48.868;9.080;2023-03-30T09:51:27;97692.22;;;12.12;80.90
77574;BME280;66710;48.868;9.080;2023-03-30T09:54:01;97689.97;;;12.20;81.58
77574;BME280;66710;48.868;9.080;2023-03-30T09:56:42;97702.84;;;12.14;81.26
77574;BME280;66710;48.868;9.080;2023-03-30T09:59:28;97697.91;;;12.16;81.14
77574;BME280;66710;48.868;9.080;2023-03-30T10:02:18;97710.78;;;12.10;81.74
77574;BME280;66710;48.868;9.080;2023-03-30T10:07:24;97701.72;;;11.91;81.14
77574;BME280;66710;48.868;9.080;2023-03-30T10:09:50;97692.94;;;11.94;81.92
77574;BME280;66710;48.868;9.080;2023-03-30T10:12:16;97693.75;;;11.94;81.69
77574;BME280;66710;48.868;9.080;2023-03-30T10:14:42;97689.72;;;12.16;80.85
77574;BME280;66710;48.868;9.080;2023-03-30T10:17:17;97685.81;;;12.22;79.45
77574;BME280;66710;48.868;9.080;2023-03-30T10:19:44;97680.13;;;12.19;79.79
77574;BME280;66710;48.868;9.080;2023-03-30T10:22:18;97662.94;;;12.18;80.84
77574;BME280;66710;48.868;9.080;2023-03-30T10:24:54;97658.16;;;12.29;80.64
77574;BME280;66710;48.868;9.080;2023-03-30T10:27:25;97650.19;;;12.32;80.29
77574;BME280;66710;48.868;9.080;2023-03-30T10:29:52;97637.06;;;12.54;79.20
77574;BME280;66710;48.868;9.080;2023-03-30T10:32:27;97645.34;;;12.67;78.96
77574;BME280;66710;48.868;9.080;2023-03-30T10:34:55;97650.69;;;12.78;78.10
77574;BME280;66710;48.868;9.080;2023-03-30T10:37:32;97651.72;;;13.01;76.55
77574;BME280;66710;48.868;9.080;2023-03-30T10:40:00;97634.81;;;13.13;76.50
77574;BME280;66710;48.868;9.080;2023-03-30T10:42:29;97636.22;;;13.29;75.75
77574;BME280;66710;48.868;9.080;2023-03-30T10:45:00;97636.50;;;13.27;76.72
77574;BME280;66710;48.868;9.080;2023-03-30T10:50:30;97631.13;;;13.03;76.69
77574;BME280;66710;48.868;9.080;2023-03-30T10:56:25;97632.38;;;13.11;76.49
77574;BME280;66710;48.868;9.080;2023-03-30T11:04:11;97633.00;;;13.88;74.91
77574;BME280;66710;48.868;9.080;2023-03-30T11:06:42;97636.75;;;14.33;74.50
77574;BME280;66710;48.868;9.080;2023-03-30T11:09:13;97637.75;;;14.10;73.24
77574;BME280;66710;48.868;9.080;2023-03-30T11:11:46;97640.28;;;14.48;71.98
77574;BME280;66710;48.868;9.080;2023-03-30T11:14:20;97650.34;;;14.25;69.98
77574;BME280;66710;48.868;9.080;2023-03-30T11:16:54;97654.19;;;14.23;70.56
77574;BME280;66710;48.868;9.080;2023-03-30T11:19:28;97659.56;;;14.01;66.67
77574;BME280;66710;48.868;9.080;2023-03-30T11:22:20;97661.50;;;14.00;67.58
77574;BME280;66710;48.868;9.080;2023-03-30T11:24:52;97655.03;;;14.10;66.30
77574;BME280;66710;48.868;9.080;2023-03-30T11:27:33;97655.63;;;13.93;65.69
77574;BME280;66710;48.868;9.080;2023-03-30T11:32:42;97661.19;;;14.02;67.75
77574;BME280;66710;48.868;9.080;2023-03-30T11:35:19;97656.41;;;13.94;66.67
77574;BME280;66710;48.868;9.080;2023-03-30T11:40:31;97670.41;;;13.78;67.31
77574;BME280;66710;48.868;9.080;2023-03-30T11:43:00;97676.91;;;13.82;68.94
77574;BME280;66710;48.868;9.080;2023-03-30T11:48:36;97664.94;;;13.92;69.27
77574;BME280;66710;48.868;9.080;2023-03-30T11:53:58;97673.97;;;14.76;68.31
77574;BME280;66710;48.868;9.080;2023-03-30T11:56:43;97669.63;;;14.97;67.21
77574;BME280;66710;48.868;9.080;2023-03-30T12:05:09;97677.00;;;14.74;67.67
77574;BME280;66710;48.868;9.080;2023-03-30T12:10:26;97675.09;;;14.61;66.91
77574;BME280;66710;48.868;9.080;2023-03-30T12:12:56;97657.22;;;14.64;67.00
77574;BME280;66710;48.868;9.080;2023-03-30T12:18:35;97648.00;;;14.59;65.98
77574;BME280;66710;48.868;9.080;2023-03-30T12:24:22;97633.69;;;15.76;63.75
77574;BME280;66710;48.868;9.080;2023-03-30T12:26:50;97629.97;;;15.49;62.87
77574;BME280;66710;48.868;9.080;2023-03-30T12:29:16;97628.66;;;16.09;62.41
77574;BME280;66710;48.868;9.080;2023-03-30T12:34:31;97623.25;;;15.32;62.71
77574;BME280;66710;48.868;9.080;2023-03-30T12:37:06;97622.81;;;15.70;61.22
77574;BME280;66710;48.868;9.080;2023-03-30T12:39:46;97607.47;;;15.69;60.33
77574;BME280;66710;48.868;9.080;2023-03-30T12:59:34;97585.69;;;16.13;57.50
77574;BME280;66710;48.868;9.080;2023-03-30T13:04:48;97592.88;;;16.58;55.15
77574;BME280;66710;48.868;9.080;2023-03-30T13:07:17;97594.91;;;16.17;56.64
77574;BME280;66710;48.868;9.080;2023-03-30T13:12:31;97583.28;;;15.17;59.39
77574;BME280;66710;48.868;9.080;2023-03-30T13:20:20;97595.00;;;15.32;58.70
77574;BME280;66710;48.868;9.080;2023-03-30T13:31:14;97556.56;;;16.03;55.19
77574;BME280;66710;48.868;9.080;2023-03-30T13:33:48;97563.75;;;16.48;53.65
77574;BME280;66710;48.868;9.080;2023-03-30T13:36:21;97585.16;;;16.95;52.05
77574;BME280;66710;48.868;9.080;2023-03-30T13:39:09;97575.59;;;16.75;51.75
77574;BME280;66710;48.868;9.080;2023-03-30T13:42:05;97572.59;;;16.19;52.38
77574;BME280;66710;48.868;9.080;2023-03-30T13:44:46;97585.06;;;16.34;52.41
77574;BME280;66710;48.868;9.080;2023-03-30T13:47:39;97577.66;;;16.69;50.09
77574;BME280;66710;48.868;9.080;2023-03-30T13:50:19;97561.97;;;15.77;52.56
77574;BME280;66710;48.868;9.080;2023-03-30T13:52:48;97568.84;;;15.66;53.76
77574;BME280;66710;48.868;9.080;2023-03-30T13:55:23;97568.19;;;15.29;53.09
77574;BME280;66710;48.868;9.080;2023-03-30T13:57:55;97572.44;;;15.12;52.73
77574;BME280;66710;48.868;9.080;2023-03-30T14:00:36;97563.38;;;15.12;54.97
77574;BME280;66710;48.868;9.080;2023-03-30T14:05:51;97567.44;;;15.14;55.50
77574;BME280;66710;48.868;9.080;2023-03-30T14:08:17;97577.41;;;15.10;56.27
77574;BME280;66710;48.868;9.080;2023-03-30T14:10:48;97550.69;;;15.87;55.04
77574;BME280;66710;48.868;9.080;2023-03-30T14:13:14;97552.16;;;15.85;53.91
77574;BME280;66710;48.868;9.080;2023-03-30T14:15:40;97553.72;;;15.46;55.20
77574;BME280;66710;48.868;9.080;2023-03-30T14:18:10;97557.47;;;15.50;55.21
77574;BME280;66710;48.868;9.080;2023-03-30T14:20:47;97555.63;;;15.36;52.75
77574;BME280;66710;48.868;9.080;2023-03-30T14:23:21;97573.09;;;15.41;52.46
77574;BME280;66710;48.868;9.080;2023-03-30T14:25:53;97560.13;;;15.32;52.77
77574;BME280;66710;48.868;9.080;2023-03-30T14:28:21;97574.41;;;15.21;52.48
77574;BME280;66710;48.868;9.080;2023-03-30T14:30:52;97593.44;;;15.17;51.65
77574;BME280;66710;48.868;9.080;2023-03-30T14:33:18;97568.13;;;15.20;52.41
77574;BME280;66710;48.868;9.080;2023-03-30T14:35:47;97565.06;;;15.22;52.16
77574;BME280;66710;48.868;9.080;2023-03-30T14:38:19;97590.75;;;15.26;51.63
77574;BME280;66710;48.868;9.080;2023-03-30T14:40:47;97567.50;;;15.23;51.04
77574;BME280;66710;48.868;9.080;2023-03-30T14:43:14;97602.09;;;15.10;51.67
77574;BME280;66710;48.868;9.080;2023-03-30T14:45:40;97606.78;;;14.37;59.93
77574;BME280;66710;48.868;9.080;2023-03-30T14:48:12;97611.69;;;13.71;65.25
77574;BME280;66710;48.868;9.080;2023-03-30T14:50:40;97602.03;;;13.45;68.25
77574;BME280;66710;48.868;9.080;2023-03-30T14:53:07;97603.69;;;13.27;67.16
77574;BME280;66710;48.868;9.080;2023-03-30T14:55:34;97585.03;;;14.54;59.75
77574;BME280;66710;48.868;9.080;2023-03-30T14:58:00;97588.94;;;15.21;57.96
77574;BME280;66710;48.868;9.080;2023-03-30T15:00:25;97594.66;;;15.33;55.17
77574;BME280;66710;48.868;9.080;2023-03-30T15:02:56;97589.59;;;15.81;55.08
77574;BME280;66710;48.868;9.080;2023-03-30T15:05:25;97586.00;;;15.40;52.21
77574;BME280;66710;48.868;9.080;2023-03-30T15:07:52;97594.28;;;16.20;52.34
77574;BME280;66710;48.868;9.080;2023-03-30T15:12:48;97599.72;;;16.03;51.09
77574;BME280;66710;48.868;9.080;2023-03-30T15:15:15;97593.53;;;15.88;51.21
77574;BME280;66710;48.868;9.080;2023-03-30T15:17:47;97588.84;;;16.73;50.45
77574;BME280;66710;48.868;9.080;2023-03-30T15:20:14;97588.00;;;16.37;51.05